sensor_id;sensor_type;location;lat;lon;timestamp;pressure;altitude;pressure_sealevel;temperature;humidity
33189;BME280;52601;53.070;10.600;2022-07-29T00:01:58;101661.53;;;14.44;85.34
33189;BME280;52601;53.070;10.600;2022-07-29T00:04:44;101647.94;;;14.35;85.95
33189;BME280;52601;53.070;10.600;2022-07-29T00:07:30;101646.31;;;14.32;85.73
33189;BME280;52601;53.070;10.600;2022-07-29T00:10:15;101648.34;;;14.26;86.75
33189;BME280;52601;53.070;10.600;2022-07-29T00:13:01;101642.25;;;14.25;86.31
33189;BME280;52601;53.070;10.600;2022-07-29T00:15:46;101629.25;;;14.21;86.31
33189;BME280;52601;53.070;10.600;2022-07-29T00:18:32;101629.41;;;14.18;86.91
33189;BME280;52601;53.070;10.600;2022-07-29T00:21:17;101644.31;;;14.19;87.77
33189;BME280;52601;53.070;10.600;2022-07-29T00:24:03;101626.00;;;14.16;87.62
33189;BME280;52601;53.070;10.600;2022-07-29T00:26:48;101623.00;;;14.05;87.58
33189;BME280;52601;53.070;10.600;2022-07-29T00:29:34;101624.38;;;14.13;88.12
33189;BME280;52601;53.070;10.600;2022-07-29T00:32:20;101616.03;;;14.04;87.98
33189;BME280;52601;53.070;10.600;2022-07-29T00:35:06;101611.38;;;14.09;88.26
33189;BME280;52601;53.070;10.600;2022-07-29T00:38:14;101607.19;;;14.05;88.39
33189;BME280;52601;53.070;10.600;2022-07-29T00:41:00;101620.00;;;14.12;88.21
33189;BME280;52601;53.070;10.600;2022-07-29T00:43:46;101622.81;;;14.09;89.60
33189;BME280;52601;53.070;10.600;2022-07-29T00:46:31;101609.91;;;14.03;88.87
33189;BME280;52601;53.070;10.600;2022-07-29T00:49:17;101625.66;;;14.05;89.14
33189;BME280;52601;53.070;10.600;2022-07-29T00:52:04;101618.53;;;14.07;88.98
33189;BME280;52601;53.070;10.600;2022-07-29T00:54:49;101605.63;;;14.01;89.71
33189;BME280;52601;53.070;10.600;2022-07-29T00:57:35;101609.41;;;13.95;90.27
33189;BME280;52601;53.070;10.600;2022-07-29T01:00:23;101608.25;;;14.01;90.10
33189;BME280;52601;53.070;10.600;2022-07-29T01:03:09;101608.97;;;14.04;90.20
33189;BME280;52601;53.070;10.600;2022-07-29T01:05:54;101607.47;;;13.99;90.64
33189;BME280;52601;53.070;10.600;2022-07-29T01:08:40;101595.25;;;13.98;91.23
33189;BME280;52601;53.070;10.600;2022-07-29T01:11:25;101591.56;;;14.00;90.77
33189;BME280;52601;53.070;10.600;2022-07-29T01:14:11;101596.31;;;13.94;91.46
33189;BME280;52601;53.070;10.600;2022-07-29T01:17:10;101602.06;;;14.02;91.63
33189;BME280;52601;53.070;10.600;2022-07-29T01:20:22;101595.16;;;13.99;91.92
33189;BME280;52601;53.070;10.600;2022-07-29T01:26:45;101596.06;;;13.98;92.60
33189;BME280;52601;53.070;10.600;2022-07-29T01:29:39;101591.75;;;13.97;92.53
33189;BME280;52601;53.070;10.600;2022-07-29T01:32:31;101596.63;;;14.05;92.95
33189;BME280;52601;53.070;10.600;2022-07-29T01:35:24;101596.63;;;14.05;92.91
33189;BME280;52601;53.070;10.600;2022-07-29T01:38:25;101585.09;;;14.07;92.97
33189;BME280;52601;53.070;10.600;2022-07-29T01:41:15;101580.97;;;14.02;93.54
33189;BME280;52601;53.070;10.600;2022-07-29T01:44:10;101570.63;;;13.97;93.24
33189;BME280;52601;53.070;10.600;2022-07-29T01:46:58;101581.50;;;14.08;92.67
33189;BME280;52601;53.070;10.600;2022-07-29T01:49:50;101582.84;;;14.00;93.42
33189;BME280;52601;53.070;10.600;2022-07-29T01:52:47;101576.19;;;14.10;93.37
33189;BME280;52601;53.070;10.600;2022-07-29T01:55:43;101576.25;;;14.08;93.24
33189;BME280;52601;53.070;10.600;2022-07-29T01:58:31;101576.19;;;14.10;93.92
33189;BME280;52601;53.070;10.600;2022-07-29T02:01:18;101563.28;;;14.04;93.85
33189;BME280;52601;53.070;10.600;2022-07-29T02:04:06;101564.91;;;14.06;93.92
33189;BME280;52601;53.070;10.600;2022-07-29T02:06:54;101567.53;;;14.06;94.30
33189;BME280;52601;53.070;10.600;2022-07-29T02:09:42;101557.94;;;14.05;94.07
33189;BME280;52601;53.070;10.600;2022-07-29T02:12:29;101571.59;;;14.13;94.82
33189;BME280;52601;53.070;10.600;2022-07-29T02:15:16;101573.31;;;14.14;94.07
33189;BME280;52601;53.070;10.600;2022-07-29T02:18:08;101572.88;;;14.23;94.41
33189;BME280;52601;53.070;10.600;2022-07-29T02:20:55;101571.06;;;14.24;93.74
33189;BME280;52601;53.070;10.600;2022-07-29T02:23:43;101572.22;;;14.18;94.55
33189;BME280;52601;53.070;10.600;2022-07-29T02:26:36;101567.91;;;14.17;94.77
33189;BME280;52601;53.070;10.600;2022-07-29T02:29:26;101554.22;;;14.09;94.94
33189;BME280;52601;53.070;10.600;2022-07-29T02:32:14;101561.66;;;14.18;95.22
33189;BME280;52601;53.070;10.600;2022-07-29T02:35:01;101568.41;;;14.24;94.69
33189;BME280;52601;53.070;10.600;2022-07-29T02:37:48;101561.66;;;14.18;94.99
33189;BME280;52601;53.070;10.600;2022-07-29T02:40:55;101552.28;;;14.13;95.09
33189;BME280;52601;53.070;10.600;2022-07-29T02:43:41;101542.72;;;14.10;95.30
33189;BME280;52601;53.070;10.600;2022-07-29T02:46:31;101547.63;;;14.18;94.87
33189;BME280;52601;53.070;10.600;2022-07-29T02:49:38;101548.66;;;14.15;95.61
33189;BME280;52601;53.070;10.600;2022-07-29T02:52:31;101556.66;;;14.14;96.19
33189;BME280;52601;53.070;10.600;2022-07-29T02:55:26;101554.84;;;14.14;95.66
33189;BME280;52601;53.070;10.600;2022-07-29T02:58:27;101549.84;;;14.08;96.15
33189;BME280;52601;53.070;10.600;2022-07-29T03:01:21;101533.81;;;13.96;97.29
33189;BME280;52601;53.070;10.600;2022-07-29T03:04:08;101547.78;;;13.98;97.59
33189;BME280;52601;53.070;10.600;2022-07-29T03:06:58;101537.34;;;13.95;97.04
33189;BME280;52601;53.070;10.600;2022-07-29T03:09:45;101531.69;;;13.85;97.57
33189;BME280;52601;53.070;10.600;2022-07-29T03:12:31;101540.22;;;13.90;97.95
33189;BME280;52601;53.070;10.600;2022-07-29T03:15:18;101543.13;;;13.84;98.11
33189;BME280;52601;53.070;10.600;2022-07-29T03:18:05;101554.34;;;13.89;98.46
33189;BME280;52601;53.070;10.600;2022-07-29T03:20:51;101543.22;;;13.82;98.74
33189;BME280;52601;53.070;10.600;2022-07-29T03:23:37;101548.50;;;13.82;98.99
33189;BME280;52601;53.070;10.600;2022-07-29T03:26:22;101548.88;;;13.75;99.27
33189;BME280;52601;53.070;10.600;2022-07-29T03:29:08;101544.28;;;13.78;98.95
33189;BME280;52601;53.070;10.600;2022-07-29T03:31:57;101544.66;;;13.90;99.30
33189;BME280;52601;53.070;10.600;2022-07-29T03:34:43;101546.56;;;13.86;99.19
33189;BME280;52601;53.070;10.600;2022-07-29T03:37:29;101542.00;;;13.90;99.30
33189;BME280;52601;53.070;10.600;2022-07-29T03:40:23;101543.88;;;13.88;99.85
33189;BME280;52601;53.070;10.600;2022-07-29T03:43:10;101544.41;;;13.94;99.28
33189;BME280;52601;53.070;10.600;2022-07-29T03:45:57;101537.22;;;13.98;99.12
33189;BME280;52601;53.070;10.600;2022-07-29T03:48:46;101539.00;;;13.97;98.73
33189;BME280;52601;53.070;10.600;2022-07-29T03:51:34;101533.72;;;13.97;98.65
33189;BME280;52601;53.070;10.600;2022-07-29T03:54:20;101527.28;;;14.03;99.12
33189;BME280;52601;53.070;10.600;2022-07-29T03:57:07;101535.13;;;14.04;98.46
33189;BME280;52601;53.070;10.600;2022-07-29T03:59:53;101532.72;;;14.00;98.47
33189;BME280;52601;53.070;10.600;2022-07-29T04:02:39;101523.00;;;14.00;98.94
33189;BME280;52601;53.070;10.600;2022-07-29T04:05:25;101525.34;;;14.06;98.76
33189;BME280;52601;53.070;10.600;2022-07-29T04:08:10;101519.53;;;14.00;99.20
33189;BME280;52601;53.070;10.600;2022-07-29T04:10:56;101523.09;;;13.99;99.32
33189;BME280;52601;53.070;10.600;2022-07-29T04:13:42;101527.94;;;14.08;99.51
33189;BME280;52601;53.070;10.600;2022-07-29T04:16:27;101528.28;;;14.00;99.47
33189;BME280;52601;53.070;10.600;2022-07-29T04:19:13;101527.94;;;14.08;98.86
33189;BME280;52601;53.070;10.600;2022-07-29T04:21:59;101524.66;;;14.03;99.19
33189;BME280;52601;53.070;10.600;2022-07-29T04:24:45;101536.56;;;14.28;98.63
33189;BME280;52601;53.070;10.600;2022-07-29T04:27:30;101538.78;;;14.37;97.41
33189;BME280;52601;53.070;10.600;2022-07-29T04:30:16;101537.72;;;14.40;96.76
33189;BME280;52601;53.070;10.600;2022-07-29T04:33:03;101537.28;;;14.49;96.65
33189;BME280;52601;53.070;10.600;2022-07-29T04:35:49;101524.53;;;14.40;96.22
33189;BME280;52601;53.070;10.600;2022-07-29T04:38:39;101516.47;;;14.43;96.67
33189;BME280;52601;53.070;10.600;2022-07-29T04:41:24;101525.63;;;14.53;96.58
33189;BME280;52601;53.070;10.600;2022-07-29T04:44:17;101512.59;;;14.67;95.69
33189;BME280;52601;53.070;10.600;2022-07-29T04:47:04;101529.34;;;14.83;94.62
33189;BME280;52601;53.070;10.600;2022-07-29T04:49:52;101543.91;;;14.90;94.57
33189;BME280;52601;53.070;10.600;2022-07-29T04:52:38;101528.88;;;15.08;93.28
33189;BME280;52601;53.070;10.600;2022-07-29T04:55:23;101529.94;;;14.88;93.65
33189;BME280;52601;53.070;10.600;2022-07-29T04:58:10;101531.03;;;14.84;94.89
33189;BME280;52601;53.070;10.600;2022-07-29T05:00:55;101528.69;;;14.78;94.41
33189;BME280;52601;53.070;10.600;2022-07-29T05:03:41;101530.56;;;14.93;95.05
33189;BME280;52601;53.070;10.600;2022-07-29T05:06:26;101541.91;;;14.95;94.59
33189;BME280;52601;53.070;10.600;2022-07-29T05:09:12;101538.66;;;15.06;94.05
33189;BME280;52601;53.070;10.600;2022-07-29T05:11:58;101532.13;;;15.13;93.44
33189;BME280;52601;53.070;10.600;2022-07-29T05:14:43;101524.25;;;15.11;93.13
33189;BME280;52601;53.070;10.600;2022-07-29T05:17:29;101537.91;;;15.19;92.69
33189;BME280;52601;53.070;10.600;2022-07-29T05:20:14;101545.56;;;15.41;92.10
33189;BME280;52601;53.070;10.600;2022-07-29T05:23:02;101554.22;;;15.60;91.53
33189;BME280;52601;53.070;10.600;2022-07-29T05:25:48;101541.59;;;15.81;90.46
33189;BME280;52601;53.070;10.600;2022-07-29T05:28:35;101529.81;;;15.86;89.39
33189;BME280;52601;53.070;10.600;2022-07-29T05:31:20;101546.66;;;15.99;88.19
33189;BME280;52601;53.070;10.600;2022-07-29T05:34:06;101544.84;;;16.15;89.29
33189;BME280;52601;53.070;10.600;2022-07-29T05:36:52;101546.78;;;16.27;88.20
33189;BME280;52601;53.070;10.600;2022-07-29T05:39:37;101560.69;;;16.31;87.73
33189;BME280;52601;53.070;10.600;2022-07-29T05:42:33;101556.06;;;16.34;87.53
33189;BME280;52601;53.070;10.600;2022-07-29T05:45:19;101552.03;;;16.43;87.04
33189;BME280;52601;53.070;10.600;2022-07-29T05:48:05;101540.31;;;16.47;86.92
33189;BME280;52601;53.070;10.600;2022-07-29T05:50:50;101528.66;;;16.65;85.89
33189;BME280;52601;53.070;10.600;2022-07-29T05:53:36;101538.19;;;16.54;86.05
33189;BME280;52601;53.070;10.600;2022-07-29T05:56:22;101536.47;;;16.53;86.69
33189;BME280;52601;53.070;10.600;2022-07-29T05:59:08;101538.78;;;16.73;86.31
33189;BME280;52601;53.070;10.600;2022-07-29T06:02:03;101531.91;;;16.70;85.11
33189;BME280;52601;53.070;10.600;2022-07-29T06:04:50;101532.94;;;16.82;85.44
33189;BME280;52601;53.070;10.600;2022-07-29T06:07:35;101533.78;;;16.96;84.67
33189;BME280;52601;53.070;10.600;2022-07-29T06:10:23;101535.94;;;17.32;83.21
33189;BME280;52601;53.070;10.600;2022-07-29T06:13:12;101521.09;;;17.44;82.17
33189;BME280;52601;53.070;10.600;2022-07-29T06:15:57;101532.00;;;17.25;82.52
33189;BME280;52601;53.070;10.600;2022-07-29T06:18:43;101519.66;;;17.24;83.12
33189;BME280;52601;53.070;10.600;2022-07-29T06:21:29;101519.84;;;17.63;82.16
33189;BME280;52601;53.070;10.600;2022-07-29T06:24:15;101521.69;;;18.02;80.46
33189;BME280;52601;53.070;10.600;2022-07-29T06:27:01;101526.06;;;17.76;79.81
33189;BME280;52601;53.070;10.600;2022-07-29T06:29:46;101517.47;;;18.12;78.93
33189;BME280;52601;53.070;10.600;2022-07-29T06:32:32;101519.19;;;18.26;78.77
33189;BME280;52601;53.070;10.600;2022-07-29T06:35:18;101517.06;;;18.70;76.81
33189;BME280;52601;53.070;10.600;2022-07-29T06:38:23;101527.09;;;18.79;76.07
33189;BME280;52601;53.070;10.600;2022-07-29T06:41:18;101523.53;;;18.53;77.44
33189;BME280;52601;53.070;10.600;2022-07-29T06:44:04;101516.75;;;18.74;76.62
33189;BME280;52601;53.070;10.600;2022-07-29T06:46:50;101512.84;;;18.92;75.70
33189;BME280;52601;53.070;10.600;2022-07-29T06:49:37;101518.97;;;19.18;74.36
33189;BME280;52601;53.070;10.600;2022-07-29T06:52:22;101520.88;;;19.29;72.90
33189;BME280;52601;53.070;10.600;2022-07-29T06:55:08;101497.94;;;19.03;73.32
33189;BME280;52601;53.070;10.600;2022-07-29T06:58:09;101517.28;;;19.66;73.16
33189;BME280;52601;53.070;10.600;2022-07-29T07:00:55;101515.69;;;19.87;70.76
33189;BME280;52601;53.070;10.600;2022-07-29T07:03:41;101513.66;;;19.91;70.81
33189;BME280;52601;53.070;10.600;2022-07-29T07:06:27;101503.44;;;19.61;71.59
33189;BME280;52601;53.070;10.600;2022-07-29T07:09:13;101505.38;;;20.30;70.08
33189;BME280;52601;53.070;10.600;2022-07-29T07:11:58;101491.88;;;19.97;70.08
33189;BME280;52601;53.070;10.600;2022-07-29T07:14:43;101501.66;;;19.85;69.82
33189;BME280;52601;53.070;10.600;2022-07-29T07:17:29;101519.72;;;20.16;69.94
33189;BME280;52601;53.070;10.600;2022-07-29T07:20:15;101493.78;;;20.18;69.87
33189;BME280;52601;53.070;10.600;2022-07-29T07:23:01;101510.47;;;20.33;69.76
33189;BME280;52601;53.070;10.600;2022-07-29T07:25:46;101510.72;;;20.30;68.55
33189;BME280;52601;53.070;10.600;2022-07-29T07:28:32;101503.81;;;20.38;68.07
33189;BME280;52601;53.070;10.600;2022-07-29T07:31:18;101510.91;;;20.73;67.94
33189;BME280;52601;53.070;10.600;2022-07-29T07:34:03;101502.78;;;21.63;64.99
33189;BME280;52601;53.070;10.600;2022-07-29T07:36:49;101513.97;;;22.10;63.66
33189;BME280;52601;53.070;10.600;2022-07-29T07:39:34;101512.69;;;22.46;60.73
33189;BME280;52601;53.070;10.600;2022-07-29T07:42:20;101516.91;;;23.10;58.75
33189;BME280;52601;53.070;10.600;2022-07-29T07:45:06;101514.13;;;23.80;58.24
33189;BME280;52601;53.070;10.600;2022-07-29T07:48:01;101510.00;;;23.48;57.62
33189;BME280;52601;53.070;10.600;2022-07-29T07:50:46;101497.19;;;23.51;57.15
33189;BME280;52601;53.070;10.600;2022-07-29T07:53:35;101493.59;;;23.32;56.99
33189;BME280;52601;53.070;10.600;2022-07-29T07:56:20;101496.44;;;23.09;58.56
33189;BME280;52601;53.070;10.600;2022-07-29T07:59:06;101498.94;;;22.71;58.50
33189;BME280;52601;53.070;10.600;2022-07-29T08:01:53;101507.50;;;23.26;57.33
33189;BME280;52601;53.070;10.600;2022-07-29T08:04:41;101487.50;;;23.20;57.40
33189;BME280;52601;53.070;10.600;2022-07-29T08:07:26;101470.44;;;23.80;56.23
33189;BME280;52601;53.070;10.600;2022-07-29T08:10:16;101495.56;;;23.98;55.06
33189;BME280;52601;53.070;10.600;2022-07-29T08:13:23;101476.66;;;23.90;55.76
33189;BME280;52601;53.070;10.600;2022-07-29T08:16:08;101501.84;;;23.59;57.29
33189;BME280;52601;53.070;10.600;2022-07-29T08:18:58;101484.13;;;23.96;56.10
33189;BME280;52601;53.070;10.600;2022-07-29T08:21:43;101499.38;;;23.95;55.63
33189;BME280;52601;53.070;10.600;2022-07-29T08:24:29;101495.66;;;23.58;56.31
33189;BME280;52601;53.070;10.600;2022-07-29T08:27:31;101482.00;;;23.80;56.39
33189;BME280;52601;53.070;10.600;2022-07-29T08:30:28;101495.88;;;24.24;55.55
33189;BME280;52601;53.070;10.600;2022-07-29T08:33:13;101478.34;;;24.39;55.15
33189;BME280;52601;53.070;10.600;2022-07-29T08:35:59;101484.69;;;25.03;52.99
33189;BME280;52601;53.070;10.600;2022-07-29T08:38:44;101471.22;;;24.76;53.46
33189;BME280;52601;53.070;10.600;2022-07-29T08:41:30;101496.72;;;24.99;53.49
33189;BME280;52601;53.070;10.600;2022-07-29T08:44:18;101492.38;;;24.89;52.44
33189;BME280;52601;53.070;10.600;2022-07-29T08:47:15;101468.53;;;24.86;53.14
33189;BME280;52601;53.070;10.600;2022-07-29T08:50:00;101475.06;;;24.73;52.77
33189;BME280;52601;53.070;10.600;2022-07-29T08:52:46;101494.91;;;24.90;52.83
33189;BME280;52601;53.070;10.600;2022-07-29T08:55:33;101488.22;;;25.31;52.11
33189;BME280;52601;53.070;10.600;2022-07-29T08:58:19;101471.50;;;25.82;50.39
33189;BME280;52601;53.070;10.600;2022-07-29T09:01:10;101481.44;;;26.60;48.74
33189;BME280;52601;53.070;10.600;2022-07-29T09:03:59;101492.06;;;26.87;48.20
33189;BME280;52601;53.070;10.600;2022-07-29T09:06:49;101482.81;;;27.23;47.56
33189;BME280;52601;53.070;10.600;2022-07-29T09:09:36;101480.72;;;27.43;45.84
33189;BME280;52601;53.070;10.600;2022-07-29T09:12:23;101490.09;;;27.88;45.58
33189;BME280;52601;53.070;10.600;2022-07-29T09:15:13;101500.94;;;28.21;44.48
33189;BME280;52601;53.070;10.600;2022-07-29T09:17:59;101485.19;;;27.76;45.27
33189;BME280;52601;53.070;10.600;2022-07-29T09:20:51;101472.53;;;27.76;45.85
33189;BME280;52601;53.070;10.600;2022-07-29T09:26:48;101475.34;;;29.50;41.19
33189;BME280;52601;53.070;10.600;2022-07-29T09:29:35;101480.16;;;27.89;42.58
33189;BME280;52601;53.070;10.600;2022-07-29T09:32:21;101474.84;;;27.47;43.90
33189;BME280;52601;53.070;10.600;2022-07-29T09:38:12;101454.16;;;27.56;43.01
33189;BME280;52601;53.070;10.600;2022-07-29T09:41:01;101473.47;;;28.17;42.56
33189;BME280;52601;53.070;10.600;2022-07-29T09:43:57;101454.53;;;29.20;40.30
33189;BME280;52601;53.070;10.600;2022-07-29T09:47:02;101450.91;;;30.49;38.91
33189;BME280;52601;53.070;10.600;2022-07-29T09:49:54;101454.13;;;31.25;37.20
33189;BME280;52601;53.070;10.600;2022-07-29T09:52:50;101428.38;;;30.86;36.74
33189;BME280;52601;53.070;10.600;2022-07-29T09:55:47;101449.72;;;30.14;37.96
33189;BME280;52601;53.070;10.600;2022-07-29T09:58:33;101424.50;;;30.51;37.37
33189;BME280;52601;53.070;10.600;2022-07-29T10:01:27;101425.81;;;29.50;39.11
33189;BME280;52601;53.070;10.600;2022-07-29T10:04:13;101428.91;;;29.92;38.00
33189;BME280;52601;53.070;10.600;2022-07-29T10:07:00;101426.00;;;28.71;39.06
33189;BME280;52601;53.070;10.600;2022-07-29T10:09:52;101431.25;;;27.92;41.28
33189;BME280;52601;53.070;10.600;2022-07-29T10:12:57;101439.56;;;28.15;40.81
33189;BME280;52601;53.070;10.600;2022-07-29T10:15:50;101415.25;;;28.39;40.63
33189;BME280;52601;53.070;10.600;2022-07-29T10:18:40;101433.31;;;29.40;39.53
33189;BME280;52601;53.070;10.600;2022-07-29T10:21:27;101424.84;;;30.63;39.08
33189;BME280;52601;53.070;10.600;2022-07-29T10:24:21;101424.38;;;30.30;38.23
33189;BME280;52601;53.070;10.600;2022-07-29T10:27:08;101418.81;;;30.46;38.12
33189;BME280;52601;53.070;10.600;2022-07-29T10:29:54;101417.63;;;31.42;36.84
33189;BME280;52601;53.070;10.600;2022-07-29T10:36:26;101425.84;;;31.49;37.45
33189;BME280;52601;53.070;10.600;2022-07-29T10:39:32;101416.19;;;31.11;37.59
33189;BME280;52601;53.070;10.600;2022-07-29T10:42:39;101411.47;;;33.15;34.83
33189;BME280;52601;53.070;10.600;2022-07-29T10:45:25;101416.81;;;32.95;34.64
33189;BME280;52601;53.070;10.600;2022-07-29T10:48:12;101403.84;;;33.51;34.79
33189;BME280;52601;53.070;10.600;2022-07-29T10:51:02;101402.16;;;35.69;32.02
33189;BME280;52601;53.070;10.600;2022-07-29T10:53:50;101393.03;;;36.92;30.25
33189;BME280;52601;53.070;10.600;2022-07-29T10:56:37;101403.13;;;37.69;29.67
33189;BME280;52601;53.070;10.600;2022-07-29T10:59:23;101395.59;;;40.37;26.52
33189;BME280;52601;53.070;10.600;2022-07-29T11:05:28;101392.00;;;39.71;27.07
33189;BME280;52601;53.070;10.600;2022-07-29T11:08:26;101385.69;;;37.22;28.67
33189;BME280;52601;53.070;10.600;2022-07-29T11:14:06;101379.41;;;38.39;27.61
33189;BME280;52601;53.070;10.600;2022-07-29T11:19:44;101384.25;;;38.83;26.22
33189;BME280;52601;53.070;10.600;2022-07-29T11:22:36;101380.00;;;39.93;24.84
33189;BME280;52601;53.070;10.600;2022-07-29T11:25:31;101369.91;;;39.21;25.63
33189;BME280;52601;53.070;10.600;2022-07-29T11:29:14;101371.31;;;37.68;26.38
33189;BME280;52601;53.070;10.600;2022-07-29T11:32:12;101360.91;;;37.17;27.35
33189;BME280;52601;53.070;10.600;2022-07-29T11:35:17;101363.91;;;36.61;28.07
33189;BME280;52601;53.070;10.600;2022-07-29T11:38:27;101361.22;;;37.68;27.59
33189;BME280;52601;53.070;10.600;2022-07-29T11:44:11;101363.63;;;34.64;30.56
33189;BME280;52601;53.070;10.600;2022-07-29T11:47:02;101364.13;;;34.22;31.58
33189;BME280;52601;53.070;10.600;2022-07-29T11:49:52;101360.31;;;32.22;33.31
33189;BME280;52601;53.070;10.600;2022-07-29T11:52:47;101344.53;;;32.04;34.14
33189;BME280;52601;53.070;10.600;2022-07-29T11:55:36;101349.19;;;32.10;33.28
33189;BME280;52601;53.070;10.600;2022-07-29T11:58:36;101353.63;;;31.69;33.70
33189;BME280;52601;53.070;10.600;2022-07-29T12:01:22;101351.81;;;30.69;34.72
33189;BME280;52601;53.070;10.600;2022-07-29T12:04:12;101343.44;;;31.14;34.81
33189;BME280;52601;53.070;10.600;2022-07-29T12:06:58;101359.28;;;30.96;34.56
33189;BME280;52601;53.070;10.600;2022-07-29T12:09:51;101359.56;;;31.01;35.08
33189;BME280;52601;53.070;10.600;2022-07-29T12:12:41;101346.19;;;30.12;35.85
33189;BME280;52601;53.070;10.600;2022-07-29T12:15:26;101340.25;;;31.47;32.99
33189;BME280;52601;53.070;10.600;2022-07-29T12:18:30;101342.75;;;33.86;31.27
33189;BME280;52601;53.070;10.600;2022-07-29T12:21:16;101341.44;;;35.98;29.62
33189;BME280;52601;53.070;10.600;2022-07-29T12:24:02;101341.72;;;38.97;26.32
33189;BME280;52601;53.070;10.600;2022-07-29T12:26:57;101330.34;;;39.50;25.08
33189;BME280;52601;53.070;10.600;2022-07-29T12:29:43;101331.38;;;40.10;24.71
33189;BME280;52601;53.070;10.600;2022-07-29T12:32:44;101338.38;;;40.01;24.33
33189;BME280;52601;53.070;10.600;2022-07-29T12:35:30;101328.34;;;40.93;24.42
33189;BME280;52601;53.070;10.600;2022-07-29T12:38:16;101327.31;;;39.63;24.55
33189;BME280;52601;53.070;10.600;2022-07-29T12:41:02;101331.19;;;38.94;24.85
33189;BME280;52601;53.070;10.600;2022-07-29T12:43:53;101321.16;;;37.44;26.58
33189;BME280;52601;53.070;10.600;2022-07-29T12:46:39;101313.72;;;37.86;26.07
33189;BME280;52601;53.070;10.600;2022-07-29T12:49:25;101312.25;;;38.41;26.11
33189;BME280;52601;53.070;10.600;2022-07-29T12:52:27;101322.88;;;38.03;25.49
33189;BME280;52601;53.070;10.600;2022-07-29T12:55:13;101317.03;;;36.76;27.27
33189;BME280;52601;53.070;10.600;2022-07-29T12:57:59;101318.75;;;35.11;28.76
33189;BME280;52601;53.070;10.600;2022-07-29T13:00:44;101317.69;;;35.49;28.77
33189;BME280;52601;53.070;10.600;2022-07-29T13:04:00;101313.63;;;33.73;29.91
33189;BME280;52601;53.070;10.600;2022-07-29T13:06:47;101299.13;;;33.27;30.80
33189;BME280;52601;53.070;10.600;2022-07-29T13:09:42;101304.13;;;34.35;30.70
33189;BME280;52601;53.070;10.600;2022-07-29T13:12:28;101305.44;;;34.83;29.81
33189;BME280;52601;53.070;10.600;2022-07-29T13:15:14;101295.72;;;34.56;29.40
33189;BME280;52601;53.070;10.600;2022-07-29T13:18:01;101300.44;;;33.51;30.97
33189;BME280;52601;53.070;10.600;2022-07-29T13:20:46;101288.59;;;36.47;28.22
33189;BME280;52601;53.070;10.600;2022-07-29T13:23:32;101282.69;;;36.80;27.11
33189;BME280;52601;53.070;10.600;2022-07-29T13:26:22;101287.81;;;36.58;26.60
33189;BME280;52601;53.070;10.600;2022-07-29T13:29:08;101283.03;;;34.75;28.06
33189;BME280;52601;53.070;10.600;2022-07-29T13:31:53;101276.94;;;34.15;29.05
33189;BME280;52601;53.070;10.600;2022-07-29T13:34:39;101276.84;;;37.06;27.14
33189;BME280;52601;53.070;10.600;2022-07-29T13:37:26;101292.66;;;36.38;27.24
33189;BME280;52601;53.070;10.600;2022-07-29T13:40:14;101281.66;;;37.22;26.95
33189;BME280;52601;53.070;10.600;2022-07-29T13:42:59;101281.13;;;39.15;24.17
33189;BME280;52601;53.070;10.600;2022-07-29T13:45:45;101284.22;;;36.58;25.41
33189;BME280;52601;53.070;10.600;2022-07-29T13:48:30;101282.28;;;35.61;26.90
33189;BME280;52601;53.070;10.600;2022-07-29T13:51:16;101284.81;;;34.56;27.58
33189;BME280;52601;53.070;10.600;2022-07-29T13:54:02;101270.84;;;35.71;28.07
33189;BME280;52601;53.070;10.600;2022-07-29T13:56:47;101271.19;;;35.31;27.39
33189;BME280;52601;53.070;10.600;2022-07-29T13:59:33;101268.72;;;34.35;28.62
33189;BME280;52601;53.070;10.600;2022-07-29T14:02:18;101270.09;;;33.73;29.16
33189;BME280;52601;53.070;10.600;2022-07-29T14:05:07;101267.53;;;33.13;29.59
33189;BME280;52601;53.070;10.600;2022-07-29T14:07:53;101267.03;;;32.90;30.13
33189;BME280;52601;53.070;10.600;2022-07-29T14:10:38;101263.31;;;34.72;28.55
33189;BME280;52601;53.070;10.600;2022-07-29T14:13:24;101260.19;;;37.07;26.62
33189;BME280;52601;53.070;10.600;2022-07-29T14:16:10;101266.78;;;38.57;24.81
33189;BME280;52601;53.070;10.600;2022-07-29T14:18:56;101256.81;;;38.39;24.70
33189;BME280;52601;53.070;10.600;2022-07-29T14:21:41;101242.69;;;38.87;23.99
33189;BME280;52601;53.070;10.600;2022-07-29T14:24:29;101250.63;;;40.38;23.31
33189;BME280;52601;53.070;10.600;2022-07-29T14:27:16;101247.41;;;39.86;22.77
33189;BME280;52601;53.070;10.600;2022-07-29T14:30:02;101244.19;;;39.39;23.18
33189;BME280;52601;53.070;10.600;2022-07-29T14:32:47;101244.19;;;39.73;23.31
33189;BME280;52601;53.070;10.600;2022-07-29T14:35:33;101251.47;;;41.45;22.14
33189;BME280;52601;53.070;10.600;2022-07-29T14:38:18;101243.56;;;40.25;22.39
33189;BME280;52601;53.070;10.600;2022-07-29T14:41:04;101239.69;;;39.83;22.78
33189;BME280;52601;53.070;10.600;2022-07-29T14:43:49;101231.59;;;41.38;22.30
33189;BME280;52601;53.070;10.600;2022-07-29T14:46:35;101229.50;;;44.00;20.39
33189;BME280;52601;53.070;10.600;2022-07-29T14:49:20;101230.38;;;45.65;19.16
33189;BME280;52601;53.070;10.600;2022-07-29T14:52:06;101240.72;;;45.55;19.31
33189;BME280;52601;53.070;10.600;2022-07-29T14:54:52;101243.41;;;44.97;19.34
33189;BME280;52601;53.070;10.600;2022-07-29T14:57:37;101233.56;;;42.41;20.97